Terminal Aerodrome Forecast
Issued by NWS

Home | Current Version | Previous Version | Text Only | Print | Product List | Glossary Off
Versions: 1 2 3 4 5 6 7 8 9 10 11 12 13 14 15 16 17 18 19 20 21 22 23 24 25 26 27 28 29 30 31

977
FTUS43 KLOT 221321 AAA
TAFMDW
TAF AMD
KMDW 221321Z 2213/2312 36010G20KT P6SM FEW060 SCT090
     FM221500 34007KT P6SM BKN025 BKN120
     FM221800 05008KT P6SM SCT040 BKN250
     FM230300 VRB04KT P6SM FEW250=

USA.gov is the U.S. government's official web portal to all federal, state and local government web resources and services.